createdAt,value
2023-01-30T00:01:44.798Z,41.57
2023-01-30T00:04:16.084Z,39.87
2023-01-30T00:06:45.998Z,41.17
2023-01-30T00:09:15.117Z,41.20
2023-01-30T00:11:43.039Z,39.43
2023-01-30T00:14:10.720Z,40.17
2023-01-30T00:16:38.469Z,39.97
2023-01-30T00:19:07.153Z,41.30
2023-01-30T00:21:34.998Z,41.40
2023-01-30T00:24:04.111Z,39.93
2023-01-30T00:26:31.807Z,40.90
2023-01-30T00:28:59.442Z,40.40
2023-01-30T00:31:27.173Z,41.03
2023-01-30T00:33:55.148Z,38.63
2023-01-30T00:36:22.754Z,40.83
2023-01-30T00:38:50.332Z,39.73
2023-01-30T00:41:19.250Z,38.20
2023-01-30T00:44:04.560Z,37.03
2023-01-30T00:46:52.198Z,37.13
2023-01-30T00:49:20.707Z,38.07
2023-01-30T00:51:48.461Z,37.77
2023-01-30T00:54:16.168Z,36.60
2023-01-30T00:56:45.220Z,36.73
2023-01-30T00:59:12.804Z,36.40
2023-01-30T01:01:40.729Z,35.50
2023-01-30T01:04:10.490Z,35.90
2023-01-30T01:06:38.357Z,37.97
2023-01-30T01:09:06.885Z,36.07
2023-01-30T01:11:34.533Z,36.30
2023-01-30T01:14:05.763Z,35.27
2023-01-30T01:16:34.985Z,33.50
2023-01-30T01:19:03.668Z,34.93
2023-01-30T01:21:31.381Z,35.10
2023-01-30T01:24:00.656Z,33.23
2023-01-30T01:26:28.731Z,35.03
2023-01-30T01:28:56.929Z,33.90
2023-01-30T01:31:26.658Z,33.50
2023-01-30T01:33:54.366Z,34.63
2023-01-30T01:36:51.534Z,34.70
2023-01-30T01:39:10.142Z,33.03
2023-01-30T01:41:36.799Z,34.23
2023-01-30T01:44:07.281Z,33.93
2023-01-30T01:46:39.660Z,32.70
2023-01-30T01:49:13.709Z,34.00
2023-01-30T01:51:47.431Z,34.50
2023-01-30T01:54:19.656Z,33.17
2023-01-30T01:56:50.727Z,33.20
2023-01-30T01:59:23.714Z,32.17
2023-01-30T02:01:56.942Z,31.60
2023-01-30T02:04:40.300Z,47.33
2023-01-30T02:07:09.616Z,99.80
2023-01-30T02:09:37.850Z,135.80
2023-01-30T02:12:06.888Z,152.50
2023-01-30T02:14:35.351Z,157.57
2023-01-30T02:17:04.336Z,182.47
2023-01-30T02:19:40.314Z,160.17
2023-01-30T02:22:36.560Z,131.20
2023-01-30T02:25:46.910Z,109.30
2023-01-30T02:28:37.820Z,83.30
2023-01-30T02:31:18.829Z,71.13
2023-01-30T02:33:57.203Z,67.03
2023-01-30T02:36:33.965Z,62.70
2023-01-30T02:39:08.809Z,61.60
2023-01-30T02:41:44.809Z,57.70
2023-01-30T02:44:19.060Z,55.70
2023-01-30T02:46:54.666Z,58.00
2023-01-30T02:49:27.535Z,54.83
2023-01-30T02:51:57.731Z,57.00
2023-01-30T02:54:25.317Z,53.53
2023-01-30T02:56:54.568Z,54.83
2023-01-30T02:59:25.399Z,52.40
2023-01-30T03:02:24.115Z,53.20
2023-01-30T03:05:31.069Z,50.03
2023-01-30T03:08:08.542Z,51.23
2023-01-30T03:10:39.426Z,50.63
2023-01-30T03:13:13.575Z,50.27
2023-01-30T03:15:46.047Z,50.07
2023-01-30T03:18:15.443Z,47.97
2023-01-30T03:20:43.093Z,47.90
2023-01-30T03:23:11.160Z,47.73
2023-01-30T03:25:42.296Z,44.60
2023-01-30T03:28:11.933Z,45.63
2023-01-30T03:30:39.563Z,45.07
2023-01-30T03:33:07.231Z,46.97
2023-01-30T03:35:36.613Z,48.10
2023-01-30T03:38:04.225Z,47.03
2023-01-30T03:40:31.890Z,46.80
2023-01-30T03:42:59.534Z,44.63
2023-01-30T03:45:27.170Z,45.03
2023-01-30T03:47:54.901Z,47.20
2023-01-30T03:50:22.535Z,45.30
2023-01-30T03:52:51.563Z,47.10
2023-01-30T03:55:19.663Z,47.20
2023-01-30T03:57:47.692Z,47.23
2023-01-30T04:00:16.496Z,47.43
2023-01-30T04:02:44.440Z,44.53
2023-01-30T04:05:12.091Z,42.53
2023-01-30T04:07:39.700Z,44.30
2023-01-30T04:10:09.870Z,44.00
2023-01-30T04:12:37.496Z,43.87
2023-01-30T04:15:05.722Z,42.53
2023-01-30T04:17:33.377Z,40.07
2023-01-30T04:20:01.044Z,41.37
2023-01-30T04:22:28.678Z,41.77
2023-01-30T04:24:56.265Z,41.03
2023-01-30T04:27:25.240Z,44.60
2023-01-30T04:29:52.894Z,41.83
2023-01-30T04:32:20.521Z,42.10
2023-01-30T04:34:48.199Z,42.80
2023-01-30T04:37:15.772Z,42.60
2023-01-30T04:39:43.482Z,44.50
2023-01-30T04:42:11.086Z,43.07
2023-01-30T04:44:40.155Z,43.40
2023-01-30T04:47:07.972Z,40.50
2023-01-30T04:49:35.593Z,41.97
2023-01-30T04:52:03.190Z,39.47
2023-01-30T04:54:30.922Z,39.13
2023-01-30T04:56:58.680Z,37.60
2023-01-30T04:59:26.425Z,38.60
2023-01-30T05:01:55.827Z,37.80
2023-01-30T05:04:23.426Z,37.30
2023-01-30T05:06:51.077Z,39.03
2023-01-30T05:09:18.904Z,38.50
2023-01-30T05:11:46.551Z,37.27
2023-01-30T05:14:14.367Z,38.60
2023-01-30T05:16:41.987Z,40.37
2023-01-30T05:19:13.835Z,39.37
2023-01-30T05:21:41.582Z,39.40
2023-01-30T05:24:09.553Z,39.93
2023-01-30T05:26:37.408Z,41.00
2023-01-30T05:29:05.070Z,40.70
2023-01-30T05:31:32.653Z,38.43
2023-01-30T05:34:00.242Z,40.07
2023-01-30T05:36:29.228Z,41.27
2023-01-30T05:38:56.824Z,41.70
2023-01-30T05:41:24.457Z,41.47
2023-01-30T05:43:52.507Z,41.23
2023-01-30T05:46:20.608Z,40.90
2023-01-30T05:48:48.373Z,42.10
2023-01-30T05:51:18.825Z,38.10
2023-01-30T05:53:48.357Z,38.50
2023-01-30T05:56:17.007Z,39.33
2023-01-30T05:58:45.160Z,39.60
2023-01-30T06:01:14.081Z,38.83
2023-01-30T06:03:41.820Z,38.90
2023-01-30T06:06:09.554Z,38.50
2023-01-30T06:08:37.218Z,38.93
2023-01-30T06:11:08.424Z,39.00
2023-01-30T06:13:36.157Z,39.10
2023-01-30T06:16:04.690Z,39.93
2023-01-30T06:18:32.570Z,39.87
2023-01-30T06:21:00.239Z,39.77
2023-01-30T06:23:28.985Z,38.87
2023-01-30T06:25:56.685Z,39.80
2023-01-30T06:28:26.618Z,39.27
2023-01-30T06:30:55.256Z,38.87
2023-01-30T06:33:22.909Z,38.00
2023-01-30T06:35:52.617Z,38.80
2023-01-30T06:38:21.316Z,38.80
2023-01-30T06:40:50.674Z,38.70
2023-01-30T06:43:18.846Z,37.57
2023-01-30T06:45:47.821Z,38.33
2023-01-30T06:48:15.538Z,38.10
2023-01-30T06:50:43.319Z,37.83
2023-01-30T06:53:11.959Z,39.60
2023-01-30T06:55:39.614Z,38.53
2023-01-30T06:58:09.000Z,40.47
2023-01-30T07:00:39.489Z,42.50
2023-01-30T07:03:11.876Z,42.20
2023-01-30T07:05:40.190Z,40.87
2023-01-30T07:08:08.013Z,41.13
2023-01-30T07:10:36.000Z,43.90
2023-01-30T07:13:03.684Z,43.67
2023-01-30T07:15:32.187Z,43.63
2023-01-30T07:18:00.295Z,42.30
2023-01-30T07:20:30.191Z,41.27
2023-01-30T07:22:57.980Z,40.03
2023-01-30T07:25:27.696Z,44.77
2023-01-30T07:27:57.824Z,38.10
2023-01-30T07:30:26.163Z,39.67
2023-01-30T07:32:54.534Z,38.33
2023-01-30T07:35:23.215Z,38.57
2023-01-30T07:37:52.821Z,39.77
2023-01-30T07:40:21.547Z,39.07
2023-01-30T07:42:57.666Z,39.53
2023-01-30T07:45:25.403Z,39.90
2023-01-30T07:47:53.289Z,39.83
2023-01-30T07:50:21.038Z,39.43
2023-01-30T07:52:48.830Z,40.27
2023-01-30T07:55:18.176Z,37.93
2023-01-30T07:57:45.976Z,44.40
2023-01-30T08:00:14.763Z,41.13
2023-01-30T08:02:42.416Z,35.53
2023-01-30T08:05:10.598Z,35.70
2023-01-30T08:07:38.233Z,37.13
2023-01-30T08:10:06.737Z,37.20
2023-01-30T08:12:35.698Z,484.47
2023-01-30T08:15:03.285Z,497.93
2023-01-30T08:17:30.907Z,494.73
2023-01-30T08:19:58.700Z,447.13
2023-01-30T08:22:26.533Z,436.40
2023-01-30T08:24:54.091Z,398.53
2023-01-30T08:27:21.848Z,437.83
2023-01-30T08:29:50.827Z,450.00
2023-01-30T08:32:18.406Z,441.30
2023-01-30T08:34:46.046Z,436.73
2023-01-30T08:37:13.995Z,433.43
2023-01-30T08:39:41.592Z,414.50
2023-01-30T08:42:09.201Z,411.37
2023-01-30T08:44:36.830Z,404.27
2023-01-30T08:47:05.960Z,406.73
2023-01-30T08:49:33.567Z,405.43
2023-01-30T08:52:01.163Z,394.97
2023-01-30T08:54:28.940Z,353.27
2023-01-30T08:56:56.625Z,257.47
2023-01-30T08:59:24.281Z,207.20
2023-01-30T09:01:51.838Z,156.23
2023-01-30T09:04:21.168Z,131.23
2023-01-30T09:06:48.758Z,97.10
2023-01-30T09:09:16.362Z,80.20
2023-01-30T09:11:43.984Z,60.87
2023-01-30T09:14:11.571Z,47.50
2023-01-30T09:16:39.133Z,44.83
2023-01-30T09:19:06.815Z,41.17
2023-01-30T09:21:35.794Z,34.90
2023-01-30T09:24:03.432Z,34.00
2023-01-30T09:26:31.148Z,29.30
2023-01-30T09:28:58.917Z,26.17
2023-01-30T09:31:26.674Z,26.83
2023-01-30T09:33:54.293Z,26.90
2023-01-30T09:36:21.896Z,26.70
2023-01-30T09:38:50.873Z,27.67
2023-01-30T09:41:47.518Z,28.63
2023-01-30T09:44:58.481Z,29.80
2023-01-30T09:47:36.031Z,28.40
2023-01-30T09:50:20.444Z,437.50
2023-01-30T09:52:57.288Z,478.10
2023-01-30T09:55:29.213Z,447.53
2023-01-30T09:57:59.593Z,425.53
2023-01-30T10:00:34.307Z,362.90
2023-01-30T10:03:07.815Z,425.67
2023-01-30T10:05:41.498Z,379.00
2023-01-30T10:08:38.148Z,352.73
2023-01-30T10:11:17.044Z,311.63
2023-01-30T10:14:05.492Z,286.90
2023-01-30T10:16:39.034Z,237.93
2023-01-30T10:19:35.199Z,218.83
2023-01-30T10:22:16.299Z,210.30
2023-01-30T10:24:56.932Z,211.63
2023-01-30T10:27:29.970Z,215.13
2023-01-30T10:30:01.240Z,202.90
2023-01-30T10:32:33.175Z,144.30
2023-01-30T10:35:06.799Z,156.43
2023-01-30T10:37:39.510Z,113.53
2023-01-30T10:40:19.167Z,89.90
2023-01-30T10:42:56.352Z,77.17
2023-01-30T10:45:32.742Z,51.80
2023-01-30T10:48:13.575Z,53.20
2023-01-30T10:50:51.554Z,46.63
2023-01-30T10:53:27.197Z,53.50
2023-01-30T10:56:01.588Z,50.37
2023-01-30T10:58:39.306Z,44.30
2023-01-30T11:01:13.083Z,40.90
2023-01-30T11:03:47.704Z,38.37
2023-01-30T11:06:18.622Z,37.20
2023-01-30T11:08:46.874Z,39.00
2023-01-30T11:11:32.079Z,37.37
2023-01-30T11:14:05.550Z,34.60
2023-01-30T11:16:43.184Z,34.30
2023-01-30T11:19:21.605Z,32.07
2023-01-30T11:21:51.854Z,30.13
2023-01-30T11:24:21.144Z,35.03
2023-01-30T11:26:49.430Z,33.37
2023-01-30T11:29:26.987Z,32.53
2023-01-30T11:31:55.340Z,30.93
2023-01-30T11:34:25.445Z,30.53
2023-01-30T11:36:53.415Z,30.70
2023-01-30T11:39:24.441Z,30.50
2023-01-30T11:42:04.662Z,28.03
2023-01-30T11:44:35.520Z,30.83
2023-01-30T11:47:07.879Z,29.40
2023-01-30T11:49:47.473Z,28.23
2023-01-30T11:52:28.462Z,27.40
2023-01-30T11:55:03.231Z,26.40
2023-01-30T11:57:30.988Z,27.20
2023-01-30T12:00:02.225Z,28.53
2023-01-30T12:02:33.504Z,27.90
2023-01-30T12:05:03.929Z,27.33
2023-01-30T12:07:34.330Z,27.90
2023-01-30T12:10:02.203Z,29.27
2023-01-30T12:12:35.754Z,30.03
2023-01-30T12:15:20.009Z,30.33
2023-01-30T12:17:53.614Z,28.97
2023-01-30T12:20:29.423Z,31.77
2023-01-30T12:23:08.935Z,30.30
2023-01-30T12:25:42.561Z,30.50
2023-01-30T12:28:19.753Z,28.60
2023-01-30T12:30:52.714Z,29.00
2023-01-30T12:33:20.429Z,29.07
2023-01-30T12:35:56.729Z,29.30
2023-01-30T12:38:39.096Z,27.13
2023-01-30T12:41:23.935Z,30.30
2023-01-30T12:44:07.559Z,29.43
2023-01-30T12:46:47.309Z,27.90
2023-01-30T12:49:33.308Z,27.90
2023-01-30T12:52:19.860Z,27.70
2023-01-30T12:54:55.596Z,28.10
2023-01-30T12:57:33.825Z,27.97
2023-01-30T13:00:17.872Z,27.93
2023-01-30T13:02:58.958Z,28.70
2023-01-30T13:05:38.439Z,29.53
2023-01-30T13:08:33.462Z,28.83
2023-01-30T13:11:09.337Z,29.03
2023-01-30T13:13:43.747Z,32.67
2023-01-30T13:16:16.945Z,34.43
2023-01-30T13:18:52.980Z,34.07
2023-01-30T13:21:25.703Z,33.77
2023-01-30T13:24:05.516Z,32.83
2023-01-30T13:26:36.760Z,38.73
2023-01-30T13:29:10.801Z,37.23
2023-01-30T13:31:43.378Z,36.50
2023-01-30T13:34:19.816Z,34.90
2023-01-30T13:36:52.306Z,33.90
2023-01-30T13:39:28.372Z,30.53
2023-01-30T13:42:01.244Z,30.60
2023-01-30T13:44:32.246Z,29.43
2023-01-30T13:47:21.389Z,29.80
2023-01-30T13:49:59.351Z,28.90
2023-01-30T13:52:33.766Z,28.33
2023-01-30T13:55:08.180Z,29.93
2023-01-30T13:57:48.047Z,29.00
2023-01-30T14:00:30.239Z,28.73
2023-01-30T14:03:30.522Z,28.10
2023-01-30T14:06:14.340Z,27.83
2023-01-30T14:08:51.667Z,28.13
2023-01-30T14:11:35.436Z,28.83
2023-01-30T14:14:07.397Z,28.63
2023-01-30T14:16:43.546Z,28.93
2023-01-30T14:19:29.141Z,29.10
2023-01-30T14:22:00.571Z,28.37
2023-01-30T14:24:31.373Z,27.03
2023-01-30T14:27:24.649Z,27.40
2023-01-30T14:29:56.669Z,28.47
2023-01-30T14:32:54.178Z,28.83
2023-01-30T14:35:29.664Z,30.13
2023-01-30T14:38:14.128Z,27.90
2023-01-30T14:41:03.957Z,29.73
2023-01-30T14:43:52.321Z,28.20
2023-01-30T14:46:54.695Z,28.67
2023-01-30T14:49:29.418Z,30.10
2023-01-30T14:51:57.238Z,28.30
2023-01-30T14:54:41.185Z,29.37
2023-01-30T14:57:21.183Z,28.87
2023-01-30T15:00:13.117Z,28.37
2023-01-30T15:02:44.315Z,29.03
2023-01-30T15:05:16.066Z,30.17
2023-01-30T15:07:46.950Z,28.73
2023-01-30T15:10:33.957Z,28.57
2023-01-30T15:13:22.688Z,29.10
2023-01-30T15:16:01.634Z,25.93
2023-01-30T15:18:44.193Z,30.20
2023-01-30T15:21:37.383Z,27.00
2023-01-30T15:24:32.493Z,27.97
2023-01-30T15:27:08.174Z,29.97
2023-01-30T15:30:08.283Z,27.00
2023-01-30T15:32:36.089Z,27.80
2023-01-30T15:35:22.581Z,26.47
2023-01-30T15:37:51.994Z,27.50
2023-01-30T15:40:22.444Z,26.73
2023-01-30T15:42:56.410Z,29.60
2023-01-30T15:45:37.692Z,29.17
2023-01-30T15:48:21.614Z,24.73
2023-01-30T15:50:51.855Z,24.50
2023-01-30T15:53:27.342Z,24.63
2023-01-30T15:55:55.818Z,25.53
2023-01-30T15:58:25.669Z,26.67
2023-01-30T16:00:56.211Z,23.80
2023-01-30T16:03:27.039Z,24.57
2023-01-30T16:05:56.732Z,26.83
2023-01-30T16:08:26.709Z,26.40
2023-01-30T16:10:54.538Z,25.93
2023-01-30T16:13:25.177Z,25.83
2023-01-30T16:15:59.251Z,25.47
2023-01-30T16:18:33.556Z,24.67
2023-01-30T16:21:04.495Z,25.10
2023-01-30T16:23:36.329Z,27.17
2023-01-30T16:26:05.703Z,27.70
2023-01-30T16:28:35.022Z,26.03
2023-01-30T16:31:05.966Z,26.43
2023-01-30T16:33:37.036Z,27.03
2023-01-30T16:36:05.830Z,26.53
2023-01-30T16:38:40.555Z,26.37
2023-01-30T16:41:29.674Z,26.70
2023-01-30T16:44:19.395Z,26.00
2023-01-30T16:46:50.065Z,24.47
2023-01-30T16:49:24.173Z,23.07
2023-01-30T16:52:01.775Z,24.20
2023-01-30T16:54:32.047Z,25.30
2023-01-30T16:57:02.154Z,25.03
2023-01-30T16:59:33.938Z,23.83
2023-01-30T17:02:05.308Z,22.27
2023-01-30T17:04:35.734Z,23.53
2023-01-30T17:07:05.197Z,22.33
2023-01-30T17:09:42.943Z,24.57
2023-01-30T17:12:37.177Z,23.20
2023-01-30T17:15:35.298Z,22.77
2023-01-30T17:18:03.229Z,23.83
2023-01-30T17:20:41.381Z,23.30
2023-01-30T17:23:10.699Z,23.47
2023-01-30T17:25:42.104Z,23.53
2023-01-30T17:28:16.759Z,23.73
2023-01-30T17:30:45.872Z,23.70
2023-01-30T17:33:13.462Z,23.67
2023-01-30T17:35:41.379Z,23.27
2023-01-30T17:38:10.223Z,22.70
2023-01-30T17:40:38.973Z,23.57
2023-01-30T17:43:06.871Z,23.70
2023-01-30T17:45:34.879Z,23.40
2023-01-30T17:48:03.902Z,23.80
2023-01-30T17:50:32.386Z,24.33
2023-01-30T17:53:00.201Z,23.60
2023-01-30T17:55:27.839Z,24.27
2023-01-30T17:57:56.427Z,24.40
2023-01-30T18:00:24.378Z,24.47
2023-01-30T18:02:53.062Z,24.63
2023-01-30T18:05:23.053Z,24.80
2023-01-30T18:07:51.058Z,25.40
2023-01-30T18:10:20.902Z,24.00
2023-01-30T18:12:48.643Z,24.97
2023-01-30T18:15:17.048Z,24.80
2023-01-30T18:17:47.568Z,24.93
2023-01-30T18:20:18.138Z,24.40
2023-01-30T18:22:47.963Z,24.13
2023-01-30T18:25:17.413Z,25.13
2023-01-30T18:27:47.905Z,24.90
2023-01-30T18:30:18.095Z,24.70
2023-01-30T18:32:52.935Z,24.63
2023-01-30T18:35:21.813Z,24.20
2023-01-30T18:37:50.979Z,23.97
2023-01-30T18:40:19.673Z,23.70
2023-01-30T18:42:47.638Z,26.67
2023-01-30T18:45:15.600Z,25.83
2023-01-30T18:47:43.395Z,24.37
2023-01-30T18:50:12.241Z,23.47
2023-01-30T18:52:39.893Z,24.13
2023-01-30T18:55:09.529Z,24.13
2023-01-30T18:57:37.233Z,24.40
2023-01-30T19:00:05.862Z,24.93
2023-01-30T19:02:33.575Z,24.90
2023-01-30T19:05:01.230Z,25.07
2023-01-30T19:07:28.789Z,23.80
2023-01-30T19:09:56.440Z,23.73
2023-01-30T19:12:43.355Z,23.20
2023-01-30T19:15:11.479Z,24.87
2023-01-30T19:17:39.102Z,23.90
2023-01-30T19:20:11.112Z,23.10
2023-01-30T19:22:38.860Z,24.13
2023-01-30T19:25:07.562Z,23.60
2023-01-30T19:27:38.419Z,24.10
2023-01-30T19:30:07.414Z,24.23
2023-01-30T19:32:35.396Z,24.93
2023-01-30T19:35:03.125Z,24.77
2023-01-30T19:37:30.893Z,24.77
2023-01-30T19:39:58.483Z,24.30
2023-01-30T19:42:26.249Z,26.27
2023-01-30T19:44:55.224Z,24.53
2023-01-30T19:47:23.348Z,23.93
2023-01-30T19:49:51.116Z,25.20
2023-01-30T19:52:18.759Z,25.93
2023-01-30T19:54:47.679Z,25.90
2023-01-30T19:57:15.258Z,27.37
2023-01-30T19:59:43.429Z,23.20
2023-01-30T20:02:12.769Z,24.10
2023-01-30T20:04:40.685Z,23.87
2023-01-30T20:07:08.335Z,23.40
2023-01-30T20:09:35.922Z,24.23
2023-01-30T20:12:03.646Z,24.60
2023-01-30T20:14:31.279Z,24.00
2023-01-30T20:16:58.936Z,24.33
2023-01-30T20:19:28.163Z,22.63
2023-01-30T20:21:56.063Z,23.47
2023-01-30T20:24:23.696Z,22.10
2023-01-30T20:26:51.303Z,23.30
2023-01-30T20:29:19.012Z,22.23
2023-01-30T20:31:46.791Z,24.83
2023-01-30T20:34:15.678Z,23.10
2023-01-30T20:36:44.730Z,23.67
2023-01-30T20:39:12.817Z,23.60
2023-01-30T20:41:40.687Z,22.33
2023-01-30T20:44:10.557Z,22.80
2023-01-30T20:46:41.419Z,22.53
2023-01-30T20:49:13.364Z,24.27
2023-01-30T20:51:41.760Z,20.27
2023-01-30T20:54:13.618Z,19.70
2023-01-30T20:56:42.927Z,20.07
2023-01-30T20:59:12.396Z,19.40
2023-01-30T21:01:40.566Z,20.10
2023-01-30T21:04:09.812Z,20.13
2023-01-30T21:06:44.798Z,19.37
2023-01-30T21:09:16.360Z,19.63
2023-01-30T21:11:44.075Z,19.30
2023-01-30T21:14:11.879Z,19.40
2023-01-30T21:16:40.174Z,20.50
2023-01-30T21:19:13.941Z,20.70
2023-01-30T21:21:43.990Z,19.40
2023-01-30T21:24:15.266Z,19.90
2023-01-30T21:26:46.514Z,20.90
2023-01-30T21:29:15.933Z,21.80
2023-01-30T21:31:44.763Z,21.67
2023-01-30T21:34:13.211Z,20.83
2023-01-30T21:36:41.210Z,20.20
2023-01-30T21:39:27.879Z,22.00
2023-01-30T21:42:14.422Z,22.37
2023-01-30T21:44:42.385Z,22.23
2023-01-30T21:47:10.027Z,23.20
2023-01-30T21:49:37.788Z,23.57
2023-01-30T21:52:05.744Z,23.77
2023-01-30T21:54:33.361Z,23.70
2023-01-30T21:57:02.562Z,22.93
2023-01-30T21:59:31.434Z,21.77
2023-01-30T22:01:59.089Z,22.50
2023-01-30T22:04:26.682Z,22.20
2023-01-30T22:06:54.494Z,22.00
2023-01-30T22:09:22.141Z,22.70
2023-01-30T22:11:49.728Z,21.63
2023-01-30T22:14:18.714Z,23.17
2023-01-30T22:16:46.310Z,24.13
2023-01-30T22:19:14.282Z,22.07
2023-01-30T22:21:42.005Z,22.63
2023-01-30T22:24:11.626Z,25.17
2023-01-30T22:26:39.697Z,23.70
2023-01-30T22:29:07.788Z,24.03
2023-01-30T22:31:40.393Z,23.50
2023-01-30T22:34:08.927Z,23.30
2023-01-30T22:36:37.546Z,24.17
2023-01-30T22:39:06.389Z,22.60
2023-01-30T22:41:36.369Z,22.70
2023-01-30T22:44:06.348Z,21.97
2023-01-30T22:46:37.508Z,22.50
2023-01-30T22:49:06.842Z,23.70
2023-01-30T22:51:37.193Z,23.27
2023-01-30T22:54:06.422Z,22.37
2023-01-30T22:56:37.070Z,23.97
2023-01-30T22:59:05.551Z,23.20
2023-01-30T23:01:34.988Z,25.13
2023-01-30T23:04:06.307Z,24.03
2023-01-30T23:06:34.801Z,23.67
2023-01-30T23:09:03.614Z,22.50
2023-01-30T23:11:32.969Z,24.00
2023-01-30T23:14:06.759Z,23.10
2023-01-30T23:16:36.047Z,23.23
2023-01-30T23:19:05.000Z,23.10
2023-01-30T23:21:35.970Z,23.00
2023-01-30T23:24:07.480Z,22.73
2023-01-30T23:26:38.207Z,22.27
2023-01-30T23:29:08.021Z,23.23
2023-01-30T23:31:37.038Z,23.87
2023-01-30T23:34:07.979Z,22.87
2023-01-30T23:36:36.524Z,23.40
2023-01-30T23:39:06.318Z,21.90
2023-01-30T23:41:36.825Z,22.40
2023-01-30T23:44:05.196Z,22.60
2023-01-30T23:46:34.410Z,24.13
2023-01-30T23:49:04.425Z,23.13
2023-01-30T23:51:35.491Z,22.93
2023-01-30T23:54:04.138Z,23.10
2023-01-30T23:56:34.073Z,22.90
2023-01-30T23:59:01.780Z,22.70
